sensor_id;sensor_type;location;lat;lon;timestamp;temperature;humidity
68480;DHT22;55469;48.934;12.050;2022-10-14T00:01:13;13.00;92.40
68480;DHT22;55469;48.934;12.050;2022-10-14T00:03:40;13.00;92.40
68480;DHT22;55469;48.934;12.050;2022-10-14T00:06:09;13.00;92.40
68480;DHT22;55469;48.934;12.050;2022-10-14T00:08:39;13.00;92.40
68480;DHT22;55469;48.934;12.050;2022-10-14T00:11:20;13.00;92.40
68480;DHT22;55469;48.934;12.050;2022-10-14T00:13:48;13.00;92.40
68480;DHT22;55469;48.934;12.050;2022-10-14T00:16:16;13.00;92.40
68480;DHT22;55469;48.934;12.050;2022-10-14T00:18:44;13.00;92.40
68480;DHT22;55469;48.934;12.050;2022-10-14T00:21:10;13.00;92.40
68480;DHT22;55469;48.934;12.050;2022-10-14T00:23:36;13.00;92.40
68480;DHT22;55469;48.934;12.050;2022-10-14T00:26:02;13.00;92.30
68480;DHT22;55469;48.934;12.050;2022-10-14T00:28:28;13.00;92.40
68480;DHT22;55469;48.934;12.050;2022-10-14T00:30:56;13.00;92.40
68480;DHT22;55469;48.934;12.050;2022-10-14T00:33:23;13.00;92.40
68480;DHT22;55469;48.934;12.050;2022-10-14T00:36:00;13.00;92.40
68480;DHT22;55469;48.934;12.050;2022-10-14T00:38:27;13.00;92.40
68480;DHT22;55469;48.934;12.050;2022-10-14T00:40:54;13.00;92.40
68480;DHT22;55469;48.934;12.050;2022-10-14T00:43:22;13.00;92.40
68480;DHT22;55469;48.934;12.050;2022-10-14T00:45:48;13.00;92.40
68480;DHT22;55469;48.934;12.050;2022-10-14T00:48:16;13.00;92.40
68480;DHT22;55469;48.934;12.050;2022-10-14T00:50:44;13.00;92.40
68480;DHT22;55469;48.934;12.050;2022-10-14T00:53:12;12.90;92.90
68480;DHT22;55469;48.934;12.050;2022-10-14T00:55:38;13.00;92.40
68480;DHT22;55469;48.934;12.050;2022-10-14T00:58:05;13.00;92.90
68480;DHT22;55469;48.934;12.050;2022-10-14T01:00:31;12.90;92.40
68480;DHT22;55469;48.934;12.050;2022-10-14T01:02:57;12.90;92.40
68480;DHT22;55469;48.934;12.050;2022-10-14T01:05:28;12.90;92.40
68480;DHT22;55469;48.934;12.050;2022-10-14T01:08:10;12.90;92.40
68480;DHT22;55469;48.934;12.050;2022-10-14T01:10:57;12.90;92.40
68480;DHT22;55469;48.934;12.050;2022-10-14T01:13:32;12.90;92.40
68480;DHT22;55469;48.934;12.050;2022-10-14T01:16:19;12.90;92.50
68480;DHT22;55469;48.934;12.050;2022-10-14T01:30:55;12.90;92.50
68480;DHT22;55469;48.934;12.050;2022-10-14T01:33:26;12.90;92.50
68480;DHT22;55469;48.934;12.050;2022-10-14T01:38:49;12.90;92.50
68480;DHT22;55469;48.934;12.050;2022-10-14T01:41:27;12.90;92.50
68480;DHT22;55469;48.934;12.050;2022-10-14T01:44:02;12.90;92.50
68480;DHT22;55469;48.934;12.050;2022-10-14T01:46:31;12.80;92.50
68480;DHT22;55469;48.934;12.050;2022-10-14T01:49:02;12.90;92.50
68480;DHT22;55469;48.934;12.050;2022-10-14T01:51:37;12.80;92.50
68480;DHT22;55469;48.934;12.050;2022-10-14T01:54:17;12.90;92.50
68480;DHT22;55469;48.934;12.050;2022-10-14T01:56:46;12.80;92.40
68480;DHT22;55469;48.934;12.050;2022-10-14T01:59:14;12.80;92.70
68480;DHT22;55469;48.934;12.050;2022-10-14T02:01:41;12.80;92.50
68480;DHT22;55469;48.934;12.050;2022-10-14T02:04:15;12.80;92.50
68480;DHT22;55469;48.934;12.050;2022-10-14T02:06:49;12.80;92.50
68480;DHT22;55469;48.934;12.050;2022-10-14T02:09:40;12.90;92.50
68480;DHT22;55469;48.934;12.050;2022-10-14T02:12:32;12.90;92.50
68480;DHT22;55469;48.934;12.050;2022-10-14T02:15:30;12.80;92.50
68480;DHT22;55469;48.934;12.050;2022-10-14T02:20:54;12.80;92.50
68480;DHT22;55469;48.934;12.050;2022-10-14T02:23:26;12.80;92.50
68480;DHT22;55469;48.934;12.050;2022-10-14T02:25:58;12.80;93.00
68480;DHT22;55469;48.934;12.050;2022-10-14T02:28:26;12.80;92.50
68480;DHT22;55469;48.934;12.050;2022-10-14T02:30:57;12.80;92.50
68480;DHT22;55469;48.934;12.050;2022-10-14T02:33:30;12.80;92.50
68480;DHT22;55469;48.934;12.050;2022-10-14T02:35:59;12.80;92.50
68480;DHT22;55469;48.934;12.050;2022-10-14T02:38:27;12.80;92.50
68480;DHT22;55469;48.934;12.050;2022-10-14T02:40:54;12.80;92.50
68480;DHT22;55469;48.934;12.050;2022-10-14T02:43:20;12.80;92.60
68480;DHT22;55469;48.934;12.050;2022-10-14T02:45:46;12.80;92.50
68480;DHT22;55469;48.934;12.050;2022-10-14T02:48:12;12.80;92.50
68480;DHT22;55469;48.934;12.050;2022-10-14T02:50:39;12.80;92.50
68480;DHT22;55469;48.934;12.050;2022-10-14T02:53:05;12.80;92.60
68480;DHT22;55469;48.934;12.050;2022-10-14T02:55:31;12.70;93.00
68480;DHT22;55469;48.934;12.050;2022-10-14T02:57:57;12.80;92.50
68480;DHT22;55469;48.934;12.050;2022-10-14T03:00:22;12.80;92.50
68480;DHT22;55469;48.934;12.050;2022-10-14T03:02:48;12.70;92.50
68480;DHT22;55469;48.934;12.050;2022-10-14T03:05:14;12.80;92.50
68480;DHT22;55469;48.934;12.050;2022-10-14T03:07:39;12.80;92.50
68480;DHT22;55469;48.934;12.050;2022-10-14T03:10:05;12.70;92.50
68480;DHT22;55469;48.934;12.050;2022-10-14T03:12:31;12.70;92.50
68480;DHT22;55469;48.934;12.050;2022-10-14T03:14:58;12.80;92.50
68480;DHT22;55469;48.934;12.050;2022-10-14T03:17:24;12.80;92.50
68480;DHT22;55469;48.934;12.050;2022-10-14T03:19:50;12.70;92.50
68480;DHT22;55469;48.934;12.050;2022-10-14T03:22:15;12.70;92.50
68480;DHT22;55469;48.934;12.050;2022-10-14T03:24:41;12.70;92.50
68480;DHT22;55469;48.934;12.050;2022-10-14T03:27:07;12.70;92.50
68480;DHT22;55469;48.934;12.050;2022-10-14T03:29:32;12.80;92.60
68480;DHT22;55469;48.934;12.050;2022-10-14T03:31:58;12.70;92.50
68480;DHT22;55469;48.934;12.050;2022-10-14T03:34:24;12.70;92.50
68480;DHT22;55469;48.934;12.050;2022-10-14T03:36:49;12.70;92.50
68480;DHT22;55469;48.934;12.050;2022-10-14T03:39:15;12.70;92.50
68480;DHT22;55469;48.934;12.050;2022-10-14T03:41:41;12.70;92.50
68480;DHT22;55469;48.934;12.050;2022-10-14T03:44:06;12.70;92.50
68480;DHT22;55469;48.934;12.050;2022-10-14T03:46:32;12.70;92.50
68480;DHT22;55469;48.934;12.050;2022-10-14T03:48:58;12.70;92.50
68480;DHT22;55469;48.934;12.050;2022-10-14T03:51:24;12.70;92.50
68480;DHT22;55469;48.934;12.050;2022-10-14T03:53:49;12.70;92.50
68480;DHT22;55469;48.934;12.050;2022-10-14T03:56:15;12.70;92.60
68480;DHT22;55469;48.934;12.050;2022-10-14T03:58:41;12.70;92.60
68480;DHT22;55469;48.934;12.050;2022-10-14T04:01:07;12.70;92.50
68480;DHT22;55469;48.934;12.050;2022-10-14T04:03:33;12.70;92.50
68480;DHT22;55469;48.934;12.050;2022-10-14T04:05:58;12.70;92.50
68480;DHT22;55469;48.934;12.050;2022-10-14T04:08:24;12.70;92.50
68480;DHT22;55469;48.934;12.050;2022-10-14T04:10:53;12.70;92.50
68480;DHT22;55469;48.934;12.050;2022-10-14T04:13:20;12.70;92.50
68480;DHT22;55469;48.934;12.050;2022-10-14T04:15:46;12.70;92.50
68480;DHT22;55469;48.934;12.050;2022-10-14T04:18:12;12.70;92.60
68480;DHT22;55469;48.934;12.050;2022-10-14T04:20:38;12.70;92.50
68480;DHT22;55469;48.934;12.050;2022-10-14T04:23:04;12.70;92.50
68480;DHT22;55469;48.934;12.050;2022-10-14T04:25:29;12.70;92.50
68480;DHT22;55469;48.934;12.050;2022-10-14T04:27:55;12.70;92.60
68480;DHT22;55469;48.934;12.050;2022-10-14T04:30:21;12.70;92.60
68480;DHT22;55469;48.934;12.050;2022-10-14T04:32:47;12.70;92.60
68480;DHT22;55469;48.934;12.050;2022-10-14T04:35:13;12.60;92.50
68480;DHT22;55469;48.934;12.050;2022-10-14T04:37:38;12.70;92.50
68480;DHT22;55469;48.934;12.050;2022-10-14T04:40:04;12.70;92.60
68480;DHT22;55469;48.934;12.050;2022-10-14T04:42:30;12.60;92.50
68480;DHT22;55469;48.934;12.050;2022-10-14T04:44:56;12.60;92.50
68480;DHT22;55469;48.934;12.050;2022-10-14T04:47:22;12.70;92.60
68480;DHT22;55469;48.934;12.050;2022-10-14T04:49:47;12.70;92.50
68480;DHT22;55469;48.934;12.050;2022-10-14T04:52:13;12.70;92.50
68480;DHT22;55469;48.934;12.050;2022-10-14T04:54:39;12.70;92.60
68480;DHT22;55469;48.934;12.050;2022-10-14T04:57:04;12.70;92.60
68480;DHT22;55469;48.934;12.050;2022-10-14T04:59:30;12.60;92.60
68480;DHT22;55469;48.934;12.050;2022-10-14T05:01:56;12.70;92.60
68480;DHT22;55469;48.934;12.050;2022-10-14T05:06:57;12.60;92.60
68480;DHT22;55469;48.934;12.050;2022-10-14T05:09:23;12.60;92.60
68480;DHT22;55469;48.934;12.050;2022-10-14T05:11:49;12.60;92.50
68480;DHT22;55469;48.934;12.050;2022-10-14T05:14:14;12.60;92.60
68480;DHT22;55469;48.934;12.050;2022-10-14T05:16:40;12.60;92.60
68480;DHT22;55469;48.934;12.050;2022-10-14T05:19:06;12.60;92.60
68480;DHT22;55469;48.934;12.050;2022-10-14T05:21:32;12.60;92.60
68480;DHT22;55469;48.934;12.050;2022-10-14T05:23:58;12.60;92.60
68480;DHT22;55469;48.934;12.050;2022-10-14T05:26:23;12.60;92.50
68480;DHT22;55469;48.934;12.050;2022-10-14T05:28:52;12.60;92.60
68480;DHT22;55469;48.934;12.050;2022-10-14T05:31:18;12.60;92.60
68480;DHT22;55469;48.934;12.050;2022-10-14T05:33:46;12.60;92.60
68480;DHT22;55469;48.934;12.050;2022-10-14T05:36:12;12.60;92.60
68480;DHT22;55469;48.934;12.050;2022-10-14T05:38:41;12.60;92.60
68480;DHT22;55469;48.934;12.050;2022-10-14T05:41:08;12.60;92.50
68480;DHT22;55469;48.934;12.050;2022-10-14T05:43:33;12.60;92.50
68480;DHT22;55469;48.934;12.050;2022-10-14T05:45:59;12.60;92.80
68480;DHT22;55469;48.934;12.050;2022-10-14T05:48:28;12.60;92.60
68480;DHT22;55469;48.934;12.050;2022-10-14T05:50:54;12.60;92.50
68480;DHT22;55469;48.934;12.050;2022-10-14T05:53:20;12.60;92.60
68480;DHT22;55469;48.934;12.050;2022-10-14T05:55:46;12.60;92.50
68480;DHT22;55469;48.934;12.050;2022-10-14T05:58:12;12.60;92.50
68480;DHT22;55469;48.934;12.050;2022-10-14T06:00:38;12.60;92.60
68480;DHT22;55469;48.934;12.050;2022-10-14T06:03:04;12.60;92.60
68480;DHT22;55469;48.934;12.050;2022-10-14T06:05:30;12.60;92.50
68480;DHT22;55469;48.934;12.050;2022-10-14T06:07:59;12.60;92.50
68480;DHT22;55469;48.934;12.050;2022-10-14T06:10:27;12.60;92.50
68480;DHT22;55469;48.934;12.050;2022-10-14T06:12:53;12.60;92.60
68480;DHT22;55469;48.934;12.050;2022-10-14T06:15:19;12.60;92.60
68480;DHT22;55469;48.934;12.050;2022-10-14T06:17:44;12.60;92.60
68480;DHT22;55469;48.934;12.050;2022-10-14T06:20:10;12.60;92.60
68480;DHT22;55469;48.934;12.050;2022-10-14T06:22:36;12.60;92.50
68480;DHT22;55469;48.934;12.050;2022-10-14T06:25:01;12.60;92.50
68480;DHT22;55469;48.934;12.050;2022-10-14T06:27:27;12.60;92.50
68480;DHT22;55469;48.934;12.050;2022-10-14T06:29:53;12.60;92.50
68480;DHT22;55469;48.934;12.050;2022-10-14T06:32:19;12.60;92.50
68480;DHT22;55469;48.934;12.050;2022-10-14T06:34:44;12.60;92.50
68480;DHT22;55469;48.934;12.050;2022-10-14T06:37:10;12.60;92.50
68480;DHT22;55469;48.934;12.050;2022-10-14T06:39:36;12.60;92.50
68480;DHT22;55469;48.934;12.050;2022-10-14T06:42:02;12.60;92.40
68480;DHT22;55469;48.934;12.050;2022-10-14T06:44:35;12.60;92.40
68480;DHT22;55469;48.934;12.050;2022-10-14T06:47:01;12.60;92.40
68480;DHT22;55469;48.934;12.050;2022-10-14T06:49:30;12.60;92.40
68480;DHT22;55469;48.934;12.050;2022-10-14T06:51:58;12.70;92.40
68480;DHT22;55469;48.934;12.050;2022-10-14T06:54:23;12.60;92.40
68480;DHT22;55469;48.934;12.050;2022-10-14T06:56:49;12.60;92.30
68480;DHT22;55469;48.934;12.050;2022-10-14T06:59:30;12.70;92.40
68480;DHT22;55469;48.934;12.050;2022-10-14T07:01:56;12.70;92.30
68480;DHT22;55469;48.934;12.050;2022-10-14T07:04:22;12.70;92.40
68480;DHT22;55469;48.934;12.050;2022-10-14T07:06:48;12.70;92.30
68480;DHT22;55469;48.934;12.050;2022-10-14T07:09:14;12.70;92.30
68480;DHT22;55469;48.934;12.050;2022-10-14T07:11:40;12.70;92.30
68480;DHT22;55469;48.934;12.050;2022-10-14T07:14:09;12.70;92.30
68480;DHT22;55469;48.934;12.050;2022-10-14T07:16:34;12.70;92.20
68480;DHT22;55469;48.934;12.050;2022-10-14T07:19:00;12.70;92.20
68480;DHT22;55469;48.934;12.050;2022-10-14T07:21:26;12.70;92.30
68480;DHT22;55469;48.934;12.050;2022-10-14T07:27:33;12.80;92.30
68480;DHT22;55469;48.934;12.050;2022-10-14T07:29:59;12.80;92.30
68480;DHT22;55469;48.934;12.050;2022-10-14T07:32:26;12.80;92.30
68480;DHT22;55469;48.934;12.050;2022-10-14T07:34:54;12.70;92.30
68480;DHT22;55469;48.934;12.050;2022-10-14T07:37:20;12.80;92.30
68480;DHT22;55469;48.934;12.050;2022-10-14T07:39:49;12.80;92.30
68480;DHT22;55469;48.934;12.050;2022-10-14T07:42:17;12.80;92.30
68480;DHT22;55469;48.934;12.050;2022-10-14T07:44:43;12.80;92.30
68480;DHT22;55469;48.934;12.050;2022-10-14T07:47:15;12.80;92.30
68480;DHT22;55469;48.934;12.050;2022-10-14T07:49:41;12.90;92.30
68480;DHT22;55469;48.934;12.050;2022-10-14T07:52:07;12.90;92.20
68480;DHT22;55469;48.934;12.050;2022-10-14T07:54:35;12.90;92.20
68480;DHT22;55469;48.934;12.050;2022-10-14T07:57:09;12.90;92.20
68480;DHT22;55469;48.934;12.050;2022-10-14T07:59:35;12.90;92.10
68480;DHT22;55469;48.934;12.050;2022-10-14T08:02:00;12.90;92.10
68480;DHT22;55469;48.934;12.050;2022-10-14T08:04:29;12.90;92.10
68480;DHT22;55469;48.934;12.050;2022-10-14T08:06:55;12.90;92.10
68480;DHT22;55469;48.934;12.050;2022-10-14T08:09:21;12.90;92.10
68480;DHT22;55469;48.934;12.050;2022-10-14T08:11:53;12.90;92.00
68480;DHT22;55469;48.934;12.050;2022-10-14T08:14:18;12.90;92.00
68480;DHT22;55469;48.934;12.050;2022-10-14T08:16:44;12.90;92.00
68480;DHT22;55469;48.934;12.050;2022-10-14T08:19:11;12.90;92.00
68480;DHT22;55469;48.934;12.050;2022-10-14T08:21:37;12.90;92.00
68480;DHT22;55469;48.934;12.050;2022-10-14T08:24:03;13.00;92.20
68480;DHT22;55469;48.934;12.050;2022-10-14T08:26:37;12.90;92.10
68480;DHT22;55469;48.934;12.050;2022-10-14T08:29:07;13.00;92.00
68480;DHT22;55469;48.934;12.050;2022-10-14T08:31:35;13.00;92.00
68480;DHT22;55469;48.934;12.050;2022-10-14T08:34:01;13.00;92.00
68480;DHT22;55469;48.934;12.050;2022-10-14T08:36:27;13.00;91.90
68480;DHT22;55469;48.934;12.050;2022-10-14T08:38:54;13.00;91.90
68480;DHT22;55469;48.934;12.050;2022-10-14T08:44:10;13.00;91.90
68480;DHT22;55469;48.934;12.050;2022-10-14T08:46:55;13.00;91.80
68480;DHT22;55469;48.934;12.050;2022-10-14T08:49:31;13.10;91.80
68480;DHT22;55469;48.934;12.050;2022-10-14T08:52:05;13.10;91.80
68480;DHT22;55469;48.934;12.050;2022-10-14T08:54:34;13.00;91.80
68480;DHT22;55469;48.934;12.050;2022-10-14T08:57:04;13.00;91.80
68480;DHT22;55469;48.934;12.050;2022-10-14T08:59:34;13.10;91.80
68480;DHT22;55469;48.934;12.050;2022-10-14T09:04:54;13.10;91.80
68480;DHT22;55469;48.934;12.050;2022-10-14T09:07:21;13.10;91.80
68480;DHT22;55469;48.934;12.050;2022-10-14T09:09:50;13.20;91.70
68480;DHT22;55469;48.934;12.050;2022-10-14T09:12:25;13.10;91.70
68480;DHT22;55469;48.934;12.050;2022-10-14T09:20:31;13.20;91.70
68480;DHT22;55469;48.934;12.050;2022-10-14T09:25:40;13.60;94.80
68480;DHT22;55469;48.934;12.050;2022-10-14T09:28:13;13.60;94.60
68480;DHT22;55469;48.934;12.050;2022-10-14T09:30:39;13.70;95.30
68480;DHT22;55469;48.934;12.050;2022-10-14T09:33:05;13.70;95.20
68480;DHT22;55469;48.934;12.050;2022-10-14T09:35:42;13.60;94.90
68480;DHT22;55469;48.934;12.050;2022-10-14T09:38:10;13.50;94.50
68480;DHT22;55469;48.934;12.050;2022-10-14T09:40:41;13.40;94.20
68480;DHT22;55469;48.934;12.050;2022-10-14T09:45:56;13.40;94.10
68480;DHT22;55469;48.934;12.050;2022-10-14T09:50:58;13.40;94.00
68480;DHT22;55469;48.934;12.050;2022-10-14T09:53:39;13.40;93.80
68480;DHT22;55469;48.934;12.050;2022-10-14T09:56:12;13.40;93.70
68480;DHT22;55469;48.934;12.050;2022-10-14T09:58:45;13.50;93.60
68480;DHT22;55469;48.934;12.050;2022-10-14T10:01:21;13.40;93.40
68480;DHT22;55469;48.934;12.050;2022-10-14T10:03:50;13.50;93.40
68480;DHT22;55469;48.934;12.050;2022-10-14T10:06:26;13.50;93.30
68480;DHT22;55469;48.934;12.050;2022-10-14T10:11:36;13.50;93.20
68480;DHT22;55469;48.934;12.050;2022-10-14T10:14:23;13.50;93.10
68480;DHT22;55469;48.934;12.050;2022-10-14T10:17:09;13.50;93.10
68480;DHT22;55469;48.934;12.050;2022-10-14T10:19:47;13.50;93.00
68480;DHT22;55469;48.934;12.050;2022-10-14T10:22:26;13.60;93.00
68480;DHT22;55469;48.934;12.050;2022-10-14T10:27:33;13.60;92.80
68480;DHT22;55469;48.934;12.050;2022-10-14T10:38:23;13.70;92.60
68480;DHT22;55469;48.934;12.050;2022-10-14T10:44:10;13.70;92.50
68480;DHT22;55469;48.934;12.050;2022-10-14T10:56:40;13.80;92.40
68480;DHT22;55469;48.934;12.050;2022-10-14T11:11:26;13.80;92.20
68480;DHT22;55469;48.934;12.050;2022-10-14T11:14:27;13.80;92.20
68480;DHT22;55469;48.934;12.050;2022-10-14T11:17:53;13.90;92.20
68480;DHT22;55469;48.934;12.050;2022-10-14T11:23:48;13.90;92.10
68480;DHT22;55469;48.934;12.050;2022-10-14T11:26:51;13.90;92.00
68480;DHT22;55469;48.934;12.050;2022-10-14T11:35:29;14.00;92.00
68480;DHT22;55469;48.934;12.050;2022-10-14T11:38:08;14.00;91.90
68480;DHT22;55469;48.934;12.050;2022-10-14T11:41:00;14.00;91.90
68480;DHT22;55469;48.934;12.050;2022-10-14T11:43:40;14.10;91.90
68480;DHT22;55469;48.934;12.050;2022-10-14T11:46:21;14.10;91.80
68480;DHT22;55469;48.934;12.050;2022-10-14T11:48:55;14.10;91.80
68480;DHT22;55469;48.934;12.050;2022-10-14T11:51:39;14.20;91.80
68480;DHT22;55469;48.934;12.050;2022-10-14T11:54:17;14.20;91.70
68480;DHT22;55469;48.934;12.050;2022-10-14T11:57:06;14.20;91.60
68480;DHT22;55469;48.934;12.050;2022-10-14T12:02:37;14.30;91.60
68480;DHT22;55469;48.934;12.050;2022-10-14T12:06:01;14.30;91.50
68480;DHT22;55469;48.934;12.050;2022-10-14T12:11:38;14.40;91.50
68480;DHT22;55469;48.934;12.050;2022-10-14T12:17:04;14.40;91.50
68480;DHT22;55469;48.934;12.050;2022-10-14T12:19:32;14.40;91.40
68480;DHT22;55469;48.934;12.050;2022-10-14T12:22:23;14.40;91.90
68480;DHT22;55469;48.934;12.050;2022-10-14T12:24:58;14.50;91.40
68480;DHT22;55469;48.934;12.050;2022-10-14T12:27:29;14.50;91.60
68480;DHT22;55469;48.934;12.050;2022-10-14T12:29:56;14.50;91.40
68480;DHT22;55469;48.934;12.050;2022-10-14T12:32:28;14.50;91.40
68480;DHT22;55469;48.934;12.050;2022-10-14T12:34:59;14.50;91.40
68480;DHT22;55469;48.934;12.050;2022-10-14T12:37:38;14.50;91.40
68480;DHT22;55469;48.934;12.050;2022-10-14T12:40:40;14.50;91.40
68480;DHT22;55469;48.934;12.050;2022-10-14T12:43:25;14.50;91.50
68480;DHT22;55469;48.934;12.050;2022-10-14T12:46:08;14.50;91.50
68480;DHT22;55469;48.934;12.050;2022-10-14T12:48:42;14.50;91.50
68480;DHT22;55469;48.934;12.050;2022-10-14T12:51:13;14.50;91.50
68480;DHT22;55469;48.934;12.050;2022-10-14T12:54:20;14.60;91.40
68480;DHT22;55469;48.934;12.050;2022-10-14T12:57:02;14.50;91.40
68480;DHT22;55469;48.934;12.050;2022-10-14T12:59:37;14.60;91.40
68480;DHT22;55469;48.934;12.050;2022-10-14T13:02:32;14.60;91.90
68480;DHT22;55469;48.934;12.050;2022-10-14T13:05:04;14.60;91.40
68480;DHT22;55469;48.934;12.050;2022-10-14T13:07:41;14.60;91.30
68480;DHT22;55469;48.934;12.050;2022-10-14T13:18:56;14.60;91.40
68480;DHT22;55469;48.934;12.050;2022-10-14T13:31:55;14.60;91.20
68480;DHT22;55469;48.934;12.050;2022-10-14T13:34:50;14.60;91.20
68480;DHT22;55469;48.934;12.050;2022-10-14T13:37:37;14.60;91.30
68480;DHT22;55469;48.934;12.050;2022-10-14T13:40:25;14.70;91.30
68480;DHT22;55469;48.934;12.050;2022-10-14T13:43:00;14.60;91.30
68480;DHT22;55469;48.934;12.050;2022-10-14T13:45:35;14.60;91.30
68480;DHT22;55469;48.934;12.050;2022-10-14T13:48:04;14.60;91.30
68480;DHT22;55469;48.934;12.050;2022-10-14T13:50:35;14.60;91.20
68480;DHT22;55469;48.934;12.050;2022-10-14T13:53:14;14.70;91.30
68480;DHT22;55469;48.934;12.050;2022-10-14T13:55:44;14.70;91.30
68480;DHT22;55469;48.934;12.050;2022-10-14T13:58:20;14.70;91.30
68480;DHT22;55469;48.934;12.050;2022-10-14T14:01:05;14.70;91.40
68480;DHT22;55469;48.934;12.050;2022-10-14T14:03:42;14.70;91.20
68480;DHT22;55469;48.934;12.050;2022-10-14T14:06:13;14.70;91.20
68480;DHT22;55469;48.934;12.050;2022-10-14T14:08:51;14.70;91.30
68480;DHT22;55469;48.934;12.050;2022-10-14T14:11:30;14.70;91.30
68480;DHT22;55469;48.934;12.050;2022-10-14T14:14:07;14.70;91.30
68480;DHT22;55469;48.934;12.050;2022-10-14T14:16:39;14.70;91.30
68480;DHT22;55469;48.934;12.050;2022-10-14T14:19:32;14.70;91.30
68480;DHT22;55469;48.934;12.050;2022-10-14T14:24:47;14.70;91.30
68480;DHT22;55469;48.934;12.050;2022-10-14T14:27:16;14.70;91.30
68480;DHT22;55469;48.934;12.050;2022-10-14T14:29:44;14.70;91.30
68480;DHT22;55469;48.934;12.050;2022-10-14T14:32:18;14.70;91.30
68480;DHT22;55469;48.934;12.050;2022-10-14T14:34:48;14.70;91.20
68480;DHT22;55469;48.934;12.050;2022-10-14T14:37:27;14.80;91.20
68480;DHT22;55469;48.934;12.050;2022-10-14T14:42:40;14.80;91.30
68480;DHT22;55469;48.934;12.050;2022-10-14T14:45:13;14.80;91.20
68480;DHT22;55469;48.934;12.050;2022-10-14T14:47:46;14.80;91.20
68480;DHT22;55469;48.934;12.050;2022-10-14T14:50:15;14.80;91.20
68480;DHT22;55469;48.934;12.050;2022-10-14T14:52:47;14.80;91.20
68480;DHT22;55469;48.934;12.050;2022-10-14T14:55:37;14.80;91.20
68480;DHT22;55469;48.934;12.050;2022-10-14T15:01:05;14.80;91.30
68480;DHT22;55469;48.934;12.050;2022-10-14T15:03:34;14.70;91.20
68480;DHT22;55469;48.934;12.050;2022-10-14T15:06:16;14.80;91.30
68480;DHT22;55469;48.934;12.050;2022-10-14T15:08:48;14.80;91.20
68480;DHT22;55469;48.934;12.050;2022-10-14T15:11:18;14.80;91.20
68480;DHT22;55469;48.934;12.050;2022-10-14T15:13:54;14.80;91.20
68480;DHT22;55469;48.934;12.050;2022-10-14T15:16:40;14.80;91.20
68480;DHT22;55469;48.934;12.050;2022-10-14T15:21:46;14.80;91.30
68480;DHT22;55469;48.934;12.050;2022-10-14T15:24:16;14.80;91.20
68480;DHT22;55469;48.934;12.050;2022-10-14T15:26:45;14.80;91.30
68480;DHT22;55469;48.934;12.050;2022-10-14T15:29:14;14.80;91.20
68480;DHT22;55469;48.934;12.050;2022-10-14T15:32:10;14.80;91.20
68480;DHT22;55469;48.934;12.050;2022-10-14T15:34:38;14.80;91.20
68480;DHT22;55469;48.934;12.050;2022-10-14T15:37:04;14.80;91.20
68480;DHT22;55469;48.934;12.050;2022-10-14T15:39:29;14.80;91.30
68480;DHT22;55469;48.934;12.050;2022-10-14T15:41:55;14.80;91.20
68480;DHT22;55469;48.934;12.050;2022-10-14T15:44:21;14.80;91.20
68480;DHT22;55469;48.934;12.050;2022-10-14T15:46:47;14.80;91.20
68480;DHT22;55469;48.934;12.050;2022-10-14T15:49:37;14.80;91.20
68480;DHT22;55469;48.934;12.050;2022-10-14T15:52:05;14.80;91.20
68480;DHT22;55469;48.934;12.050;2022-10-14T15:54:31;14.80;91.20
68480;DHT22;55469;48.934;12.050;2022-10-14T15:56:58;14.80;91.20
68480;DHT22;55469;48.934;12.050;2022-10-14T15:59:31;14.80;91.20
68480;DHT22;55469;48.934;12.050;2022-10-14T16:01:57;14.80;91.20
68480;DHT22;55469;48.934;12.050;2022-10-14T16:04:24;14.80;91.20
68480;DHT22;55469;48.934;12.050;2022-10-14T16:06:53;14.80;91.20
68480;DHT22;55469;48.934;12.050;2022-10-14T16:09:23;14.80;91.30
68480;DHT22;55469;48.934;12.050;2022-10-14T16:11:52;14.80;91.30
68480;DHT22;55469;48.934;12.050;2022-10-14T16:14:25;14.80;91.20
68480;DHT22;55469;48.934;12.050;2022-10-14T16:16:52;14.80;91.30
68480;DHT22;55469;48.934;12.050;2022-10-14T16:19:18;14.80;91.30
68480;DHT22;55469;48.934;12.050;2022-10-14T16:21:44;14.80;91.30
68480;DHT22;55469;48.934;12.050;2022-10-14T16:24:18;14.80;91.30
68480;DHT22;55469;48.934;12.050;2022-10-14T16:26:45;14.80;91.30
68480;DHT22;55469;48.934;12.050;2022-10-14T16:29:14;14.80;91.20
68480;DHT22;55469;48.934;12.050;2022-10-14T16:31:42;14.80;91.30
68480;DHT22;55469;48.934;12.050;2022-10-14T16:34:12;14.80;91.30
68480;DHT22;55469;48.934;12.050;2022-10-14T16:36:38;14.80;91.30
68480;DHT22;55469;48.934;12.050;2022-10-14T16:39:04;14.80;91.30
68480;DHT22;55469;48.934;12.050;2022-10-14T16:41:30;14.80;91.30
68480;DHT22;55469;48.934;12.050;2022-10-14T16:43:56;14.80;91.30
68480;DHT22;55469;48.934;12.050;2022-10-14T16:46:22;14.80;91.30
68480;DHT22;55469;48.934;12.050;2022-10-14T16:49:08;14.80;91.30
68480;DHT22;55469;48.934;12.050;2022-10-14T16:51:33;14.80;91.30
68480;DHT22;55469;48.934;12.050;2022-10-14T16:53:59;14.80;91.30
68480;DHT22;55469;48.934;12.050;2022-10-14T16:56:25;14.80;91.30
68480;DHT22;55469;48.934;12.050;2022-10-14T16:59:10;14.80;91.30
68480;DHT22;55469;48.934;12.050;2022-10-14T17:01:37;14.80;91.30
68480;DHT22;55469;48.934;12.050;2022-10-14T17:04:04;14.80;91.30
68480;DHT22;55469;48.934;12.050;2022-10-14T17:06:30;14.80;91.30
68480;DHT22;55469;48.934;12.050;2022-10-14T17:08:56;14.80;91.40
68480;DHT22;55469;48.934;12.050;2022-10-14T17:11:23;14.80;91.40
68480;DHT22;55469;48.934;12.050;2022-10-14T17:17:32;14.80;91.40
68480;DHT22;55469;48.934;12.050;2022-10-14T17:20:24;14.80;91.40
68480;DHT22;55469;48.934;12.050;2022-10-14T17:22:52;14.80;91.40
68480;DHT22;55469;48.934;12.050;2022-10-14T17:25:23;14.80;91.40
68480;DHT22;55469;48.934;12.050;2022-10-14T17:27:49;14.80;91.40
68480;DHT22;55469;48.934;12.050;2022-10-14T17:30:15;14.80;91.40
68480;DHT22;55469;48.934;12.050;2022-10-14T17:32:47;14.80;91.40
68480;DHT22;55469;48.934;12.050;2022-10-14T17:35:12;14.80;91.40
68480;DHT22;55469;48.934;12.050;2022-10-14T17:37:38;14.80;91.40
68480;DHT22;55469;48.934;12.050;2022-10-14T17:40:05;14.80;91.50
68480;DHT22;55469;48.934;12.050;2022-10-14T17:42:31;14.80;91.50
68480;DHT22;55469;48.934;12.050;2022-10-14T17:44:57;14.80;91.50
68480;DHT22;55469;48.934;12.050;2022-10-14T17:47:32;14.80;91.50
68480;DHT22;55469;48.934;12.050;2022-10-14T17:49:58;14.80;91.50
68480;DHT22;55469;48.934;12.050;2022-10-14T17:52:24;14.80;91.50